sensor_id;sensor_type;location;lat;lon;timestamp;P1;durP1;ratioP1;P2;durP2;ratioP2
15454;SDS011;21057;51.024;7.540;2023-11-19T00:02:25;44.10;;;41.60;;
15454;SDS011;21057;51.024;7.540;2023-11-19T00:04:51;44.33;;;41.83;;
15454;SDS011;21057;51.024;7.540;2023-11-19T00:07:19;44.63;;;42.07;;
15454;SDS011;21057;51.024;7.540;2023-11-19T00:09:46;43.50;;;41.20;;
15454;SDS011;21057;51.024;7.540;2023-11-19T00:12:13;43.93;;;41.43;;
15454;SDS011;21057;51.024;7.540;2023-11-19T00:14:39;44.03;;;41.63;;
15454;SDS011;21057;51.024;7.540;2023-11-19T00:17:07;43.53;;;41.03;;
15454;SDS011;21057;51.024;7.540;2023-11-19T00:19:34;43.47;;;41.07;;
15454;SDS011;21057;51.024;7.540;2023-11-19T00:22:01;44.53;;;41.97;;
15454;SDS011;21057;51.024;7.540;2023-11-19T00:24:28;43.73;;;41.23;;
15454;SDS011;21057;51.024;7.540;2023-11-19T00:26:55;44.23;;;41.73;;
15454;SDS011;21057;51.024;7.540;2023-11-19T00:29:22;42.97;;;40.47;;
15454;SDS011;21057;51.024;7.540;2023-11-19T00:31:49;41.50;;;39.10;;
15454;SDS011;21057;51.024;7.540;2023-11-19T00:34:18;42.07;;;39.67;;
15454;SDS011;21057;51.024;7.540;2023-11-19T00:36:47;40.67;;;38.27;;
15454;SDS011;21057;51.024;7.540;2023-11-19T00:39:14;40.20;;;37.77;;
15454;SDS011;21057;51.024;7.540;2023-11-19T00:41:42;40.67;;;38.27;;
15454;SDS011;21057;51.024;7.540;2023-11-19T00:44:11;40.73;;;38.33;;
15454;SDS011;21057;51.024;7.540;2023-11-19T00:46:37;41.87;;;39.47;;
15454;SDS011;21057;51.024;7.540;2023-11-19T00:49:04;43.17;;;40.80;;
15454;SDS011;21057;51.024;7.540;2023-11-19T00:51:32;41.60;;;39.10;;
15454;SDS011;21057;51.024;7.540;2023-11-19T00:53:59;43.80;;;41.30;;
15454;SDS011;21057;51.024;7.540;2023-11-19T00:56:27;41.73;;;39.43;;
15454;SDS011;21057;51.024;7.540;2023-11-19T00:58:54;43.50;;;41.10;;
15454;SDS011;21057;51.024;7.540;2023-11-19T01:01:21;44.37;;;41.87;;
15454;SDS011;21057;51.024;7.540;2023-11-19T01:03:48;39.77;;;37.47;;
15454;SDS011;21057;51.024;7.540;2023-11-19T01:06:15;40.50;;;38.00;;
15454;SDS011;21057;51.024;7.540;2023-11-19T01:08:53;41.70;;;39.30;;
15454;SDS011;21057;51.024;7.540;2023-11-19T01:11:22;39.47;;;37.17;;
15454;SDS011;21057;51.024;7.540;2023-11-19T01:13:49;39.57;;;37.17;;
15454;SDS011;21057;51.024;7.540;2023-11-19T01:16:17;39.97;;;37.57;;
15454;SDS011;21057;51.024;7.540;2023-11-19T01:18:44;41.73;;;39.23;;
15454;SDS011;21057;51.024;7.540;2023-11-19T01:21:13;41.83;;;39.33;;
15454;SDS011;21057;51.024;7.540;2023-11-19T01:23:40;41.30;;;38.90;;
15454;SDS011;21057;51.024;7.540;2023-11-19T01:26:09;41.83;;;39.43;;
15454;SDS011;21057;51.024;7.540;2023-11-19T01:28:37;42.27;;;39.87;;
15454;SDS011;21057;51.024;7.540;2023-11-19T01:31:09;42.13;;;39.70;;
15454;SDS011;21057;51.024;7.540;2023-11-19T01:33:37;42.53;;;40.03;;
15454;SDS011;21057;51.024;7.540;2023-11-19T01:36:05;42.50;;;40.10;;
15454;SDS011;21057;51.024;7.540;2023-11-19T01:38:33;42.13;;;39.67;;
15454;SDS011;21057;51.024;7.540;2023-11-19T01:40:59;43.50;;;41.10;;
15454;SDS011;21057;51.024;7.540;2023-11-19T01:43:33;39.63;;;37.43;;
15454;SDS011;21057;51.024;7.540;2023-11-19T01:46:00;40.57;;;38.27;;
15454;SDS011;21057;51.024;7.540;2023-11-19T01:48:28;41.17;;;38.97;;
15454;SDS011;21057;51.024;7.540;2023-11-19T01:50:55;40.30;;;38.10;;
15454;SDS011;21057;51.024;7.540;2023-11-19T01:53:23;39.70;;;37.50;;
15454;SDS011;21057;51.024;7.540;2023-11-19T01:55:50;41.53;;;39.23;;
15454;SDS011;21057;51.024;7.540;2023-11-19T01:58:18;40.80;;;38.50;;
15454;SDS011;21057;51.024;7.540;2023-11-19T02:00:47;42.63;;;40.23;;
15454;SDS011;21057;51.024;7.540;2023-11-19T02:03:14;39.07;;;36.87;;
15454;SDS011;21057;51.024;7.540;2023-11-19T02:05:41;39.20;;;37.00;;
15454;SDS011;21057;51.024;7.540;2023-11-19T02:08:09;39.83;;;37.63;;
15454;SDS011;21057;51.024;7.540;2023-11-19T02:10:35;38.87;;;36.67;;
15454;SDS011;21057;51.024;7.540;2023-11-19T02:13:03;37.50;;;35.40;;
15454;SDS011;21057;51.024;7.540;2023-11-19T02:15:31;39.77;;;37.50;;
15454;SDS011;21057;51.024;7.540;2023-11-19T02:20:45;38.80;;;36.60;;
15454;SDS011;21057;51.024;7.540;2023-11-19T02:23:12;37.77;;;35.57;;
15454;SDS011;21057;51.024;7.540;2023-11-19T02:25:40;37.53;;;35.23;;
15454;SDS011;21057;51.024;7.540;2023-11-19T02:28:08;37.10;;;34.90;;
15454;SDS011;21057;51.024;7.540;2023-11-19T02:30:37;36.90;;;34.70;;
15454;SDS011;21057;51.024;7.540;2023-11-19T02:33:04;37.63;;;35.40;;
15454;SDS011;21057;51.024;7.540;2023-11-19T02:35:32;37.70;;;35.50;;
15454;SDS011;21057;51.024;7.540;2023-11-19T02:37:59;36.67;;;34.57;;
15454;SDS011;21057;51.024;7.540;2023-11-19T02:40:28;37.60;;;35.40;;
15454;SDS011;21057;51.024;7.540;2023-11-19T02:42:55;35.90;;;33.80;;
15454;SDS011;21057;51.024;7.540;2023-11-19T02:45:24;35.37;;;33.27;;
15454;SDS011;21057;51.024;7.540;2023-11-19T02:47:52;34.87;;;32.77;;
15454;SDS011;21057;51.024;7.540;2023-11-19T02:50:20;34.67;;;32.03;;
15454;SDS011;21057;51.024;7.540;2023-11-19T02:52:51;35.80;;;33.70;;
15454;SDS011;21057;51.024;7.540;2023-11-19T02:55:19;34.43;;;32.33;;
15454;SDS011;21057;51.024;7.540;2023-11-19T02:57:46;37.10;;;34.90;;
15454;SDS011;21057;51.024;7.540;2023-11-19T03:00:14;36.90;;;34.43;;
15454;SDS011;21057;51.024;7.540;2023-11-19T03:02:43;35.43;;;33.23;;
15454;SDS011;21057;51.024;7.540;2023-11-19T03:05:12;36.43;;;33.90;;
15454;SDS011;21057;51.024;7.540;2023-11-19T03:07:40;35.57;;;33.37;;
15454;SDS011;21057;51.024;7.540;2023-11-19T03:10:09;35.57;;;33.23;;
15454;SDS011;21057;51.024;7.540;2023-11-19T03:12:38;35.70;;;33.33;;
15454;SDS011;21057;51.024;7.540;2023-11-19T03:15:06;37.77;;;35.47;;
15454;SDS011;21057;51.024;7.540;2023-11-19T03:17:35;38.13;;;35.93;;
15454;SDS011;21057;51.024;7.540;2023-11-19T03:20:04;38.07;;;35.77;;
15454;SDS011;21057;51.024;7.540;2023-11-19T03:22:34;38.67;;;36.47;;
15454;SDS011;21057;51.024;7.540;2023-11-19T03:25:03;38.03;;;35.83;;
15454;SDS011;21057;51.024;7.540;2023-11-19T03:27:33;37.07;;;34.90;;
15454;SDS011;21057;51.024;7.540;2023-11-19T03:30:00;37.17;;;35.03;;
15454;SDS011;21057;51.024;7.540;2023-11-19T03:32:28;38.20;;;35.90;;
15454;SDS011;21057;51.024;7.540;2023-11-19T03:34:55;37.87;;;35.67;;
15454;SDS011;21057;51.024;7.540;2023-11-19T03:37:24;37.10;;;34.93;;
15454;SDS011;21057;51.024;7.540;2023-11-19T03:39:51;38.20;;;35.73;;
15454;SDS011;21057;51.024;7.540;2023-11-19T03:42:19;38.93;;;36.43;;
15454;SDS011;21057;51.024;7.540;2023-11-19T03:44:47;36.87;;;34.70;;
15454;SDS011;21057;51.024;7.540;2023-11-19T03:47:14;41.87;;;38.93;;
15454;SDS011;21057;51.024;7.540;2023-11-19T03:49:41;40.77;;;38.37;;
15454;SDS011;21057;51.024;7.540;2023-11-19T03:52:09;41.33;;;38.87;;
15454;SDS011;21057;51.024;7.540;2023-11-19T03:54:37;39.07;;;36.87;;
15454;SDS011;21057;51.024;7.540;2023-11-19T03:57:04;42.17;;;39.87;;
15454;SDS011;21057;51.024;7.540;2023-11-19T03:59:31;41.67;;;38.73;;
15454;SDS011;21057;51.024;7.540;2023-11-19T04:01:58;38.50;;;36.20;;
15454;SDS011;21057;51.024;7.540;2023-11-19T04:04:25;39.77;;;37.37;;
15454;SDS011;21057;51.024;7.540;2023-11-19T04:06:53;38.27;;;35.67;;
15454;SDS011;21057;51.024;7.540;2023-11-19T04:09:20;38.00;;;35.60;;
15454;SDS011;21057;51.024;7.540;2023-11-19T04:11:48;37.80;;;35.47;;
15454;SDS011;21057;51.024;7.540;2023-11-19T04:14:15;39.60;;;37.07;;
15454;SDS011;21057;51.024;7.540;2023-11-19T04:16:43;37.63;;;35.33;;
15454;SDS011;21057;51.024;7.540;2023-11-19T04:19:10;37.90;;;35.43;;
15454;SDS011;21057;51.024;7.540;2023-11-19T04:21:37;37.10;;;34.80;;
15454;SDS011;21057;51.024;7.540;2023-11-19T04:24:07;38.40;;;36.20;;
15454;SDS011;21057;51.024;7.540;2023-11-19T04:26:39;38.27;;;35.97;;
15454;SDS011;21057;51.024;7.540;2023-11-19T04:29:09;40.17;;;36.57;;
15454;SDS011;21057;51.024;7.540;2023-11-19T04:31:36;38.93;;;36.63;;
15454;SDS011;21057;51.024;7.540;2023-11-19T04:34:03;39.57;;;37.27;;
15454;SDS011;21057;51.024;7.540;2023-11-19T04:36:31;39.30;;;37.00;;
15454;SDS011;21057;51.024;7.540;2023-11-19T04:38:58;40.23;;;37.80;;
15454;SDS011;21057;51.024;7.540;2023-11-19T04:41:25;40.53;;;37.70;;
15454;SDS011;21057;51.024;7.540;2023-11-19T04:43:53;38.53;;;36.23;;
15454;SDS011;21057;51.024;7.540;2023-11-19T04:46:21;39.80;;;35.93;;
15454;SDS011;21057;51.024;7.540;2023-11-19T04:48:48;38.33;;;35.73;;
15454;SDS011;21057;51.024;7.540;2023-11-19T04:51:15;38.33;;;36.03;;
15454;SDS011;21057;51.024;7.540;2023-11-19T04:53:42;41.30;;;36.80;;
15454;SDS011;21057;51.024;7.540;2023-11-19T04:56:10;40.90;;;37.80;;
15454;SDS011;21057;51.024;7.540;2023-11-19T04:58:38;40.50;;;37.93;;
15454;SDS011;21057;51.024;7.540;2023-11-19T05:01:05;39.67;;;37.17;;
15454;SDS011;21057;51.024;7.540;2023-11-19T05:03:33;40.27;;;37.47;;
15454;SDS011;21057;51.024;7.540;2023-11-19T05:06:01;40.27;;;37.87;;
15454;SDS011;21057;51.024;7.540;2023-11-19T05:08:28;39.47;;;36.97;;
15454;SDS011;21057;51.024;7.540;2023-11-19T05:10:55;40.97;;;38.07;;
15454;SDS011;21057;51.024;7.540;2023-11-19T05:13:22;40.73;;;38.37;;
15454;SDS011;21057;51.024;7.540;2023-11-19T05:15:49;39.67;;;37.17;;
15454;SDS011;21057;51.024;7.540;2023-11-19T05:18:16;39.27;;;35.93;;
15454;SDS011;21057;51.024;7.540;2023-11-19T05:20:44;38.67;;;36.37;;
15454;SDS011;21057;51.024;7.540;2023-11-19T05:23:11;39.53;;;36.93;;
15454;SDS011;21057;51.024;7.540;2023-11-19T05:25:38;39.23;;;36.20;;
15454;SDS011;21057;51.024;7.540;2023-11-19T05:28:05;42.17;;;38.80;;
15454;SDS011;21057;51.024;7.540;2023-11-19T05:30:32;39.97;;;37.13;;
15454;SDS011;21057;51.024;7.540;2023-11-19T05:32:58;38.20;;;35.70;;
15454;SDS011;21057;51.024;7.540;2023-11-19T05:35:25;39.93;;;37.10;;
15454;SDS011;21057;51.024;7.540;2023-11-19T05:37:54;39.00;;;36.57;;
15454;SDS011;21057;51.024;7.540;2023-11-19T05:40:21;39.47;;;36.73;;
15454;SDS011;21057;51.024;7.540;2023-11-19T05:42:48;39.97;;;36.80;;
15454;SDS011;21057;51.024;7.540;2023-11-19T05:45:14;38.27;;;35.40;;
15454;SDS011;21057;51.024;7.540;2023-11-19T05:47:41;36.77;;;33.97;;
15454;SDS011;21057;51.024;7.540;2023-11-19T05:50:09;37.00;;;34.03;;
15454;SDS011;21057;51.024;7.540;2023-11-19T05:52:36;36.90;;;34.03;;
15454;SDS011;21057;51.024;7.540;2023-11-19T05:55:05;39.20;;;36.00;;
15454;SDS011;21057;51.024;7.540;2023-11-19T05:57:35;39.70;;;36.53;;
15454;SDS011;21057;51.024;7.540;2023-11-19T06:00:02;42.13;;;37.87;;
15454;SDS011;21057;51.024;7.540;2023-11-19T06:02:32;40.13;;;37.50;;
15454;SDS011;21057;51.024;7.540;2023-11-19T06:04:59;36.70;;;33.10;;
15454;SDS011;21057;51.024;7.540;2023-11-19T06:07:26;36.77;;;32.83;;
15454;SDS011;21057;51.024;7.540;2023-11-19T06:09:53;36.90;;;34.00;;
15454;SDS011;21057;51.024;7.540;2023-11-19T06:12:21;36.60;;;33.00;;
15454;SDS011;21057;51.024;7.540;2023-11-19T06:14:48;38.17;;;35.03;;
15454;SDS011;21057;51.024;7.540;2023-11-19T06:17:15;38.23;;;34.90;;
15454;SDS011;21057;51.024;7.540;2023-11-19T06:19:42;35.97;;;33.30;;
15454;SDS011;21057;51.024;7.540;2023-11-19T06:22:10;35.93;;;32.20;;
15454;SDS011;21057;51.024;7.540;2023-11-19T06:24:37;35.10;;;32.30;;
15454;SDS011;21057;51.024;7.540;2023-11-19T06:27:03;34.57;;;31.87;;
15454;SDS011;21057;51.024;7.540;2023-11-19T06:29:32;33.57;;;30.93;;
15454;SDS011;21057;51.024;7.540;2023-11-19T06:31:58;34.73;;;31.63;;
15454;SDS011;21057;51.024;7.540;2023-11-19T06:34:25;35.57;;;32.17;;
15454;SDS011;21057;51.024;7.540;2023-11-19T06:36:52;38.10;;;34.40;;
15454;SDS011;21057;51.024;7.540;2023-11-19T06:39:19;33.70;;;31.17;;
15454;SDS011;21057;51.024;7.540;2023-11-19T06:41:46;33.50;;;30.97;;
15454;SDS011;21057;51.024;7.540;2023-11-19T06:44:13;33.03;;;30.13;;
15454;SDS011;21057;51.024;7.540;2023-11-19T06:46:42;32.53;;;30.10;;
15454;SDS011;21057;51.024;7.540;2023-11-19T06:49:08;37.20;;;30.63;;
15454;SDS011;21057;51.024;7.540;2023-11-19T06:51:35;31.63;;;29.53;;
15454;SDS011;21057;51.024;7.540;2023-11-19T06:54:06;33.93;;;31.03;;
15454;SDS011;21057;51.024;7.540;2023-11-19T06:56:33;40.17;;;31.40;;
15454;SDS011;21057;51.024;7.540;2023-11-19T06:59:00;31.17;;;28.70;;
15454;SDS011;21057;51.024;7.540;2023-11-19T07:01:27;32.47;;;29.10;;
15454;SDS011;21057;51.024;7.540;2023-11-19T07:03:55;33.37;;;30.80;;
15454;SDS011;21057;51.024;7.540;2023-11-19T07:06:23;36.45;;;31.60;;
15454;SDS011;21057;51.024;7.540;2023-11-19T07:08:49;33.93;;;30.43;;
15454;SDS011;21057;51.024;7.540;2023-11-19T07:11:16;32.27;;;29.40;;
15454;SDS011;21057;51.024;7.540;2023-11-19T07:13:43;33.70;;;30.13;;
15454;SDS011;21057;51.024;7.540;2023-11-19T07:16:11;30.33;;;27.80;;
15454;SDS011;21057;51.024;7.540;2023-11-19T07:18:40;31.17;;;28.53;;
15454;SDS011;21057;51.024;7.540;2023-11-19T07:21:10;32.17;;;28.97;;
15454;SDS011;21057;51.024;7.540;2023-11-19T07:23:37;30.87;;;28.20;;
15454;SDS011;21057;51.024;7.540;2023-11-19T07:26:04;30.20;;;27.87;;
15454;SDS011;21057;51.024;7.540;2023-11-19T07:28:33;30.70;;;27.83;;
15454;SDS011;21057;51.024;7.540;2023-11-19T07:31:00;31.80;;;28.77;;
15454;SDS011;21057;51.024;7.540;2023-11-19T07:33:27;30.47;;;27.90;;
15454;SDS011;21057;51.024;7.540;2023-11-19T07:35:54;31.13;;;28.57;;
15454;SDS011;21057;51.024;7.540;2023-11-19T07:38:22;30.37;;;27.83;;
15454;SDS011;21057;51.024;7.540;2023-11-19T07:40:49;28.87;;;26.97;;
15454;SDS011;21057;51.024;7.540;2023-11-19T07:43:16;29.63;;;27.23;;
15454;SDS011;21057;51.024;7.540;2023-11-19T07:45:43;30.60;;;28.57;;
15454;SDS011;21057;51.024;7.540;2023-11-19T07:48:11;28.90;;;26.63;;
15454;SDS011;21057;51.024;7.540;2023-11-19T07:50:38;31.30;;;29.37;;
15454;SDS011;21057;51.024;7.540;2023-11-19T07:53:06;29.93;;;28.00;;
15454;SDS011;21057;51.024;7.540;2023-11-19T07:55:35;30.70;;;28.33;;
15454;SDS011;21057;51.024;7.540;2023-11-19T07:58:01;30.93;;;28.17;;
15454;SDS011;21057;51.024;7.540;2023-11-19T08:00:28;30.23;;;27.80;;
15454;SDS011;21057;51.024;7.540;2023-11-19T08:02:55;32.73;;;29.37;;
15454;SDS011;21057;51.024;7.540;2023-11-19T08:05:22;30.17;;;28.17;;
15454;SDS011;21057;51.024;7.540;2023-11-19T08:07:50;31.63;;;28.17;;
15454;SDS011;21057;51.024;7.540;2023-11-19T08:10:18;30.57;;;28.13;;
15454;SDS011;21057;51.024;7.540;2023-11-19T08:12:46;30.00;;;27.67;;
15454;SDS011;21057;51.024;7.540;2023-11-19T08:15:13;31.20;;;28.00;;
15454;SDS011;21057;51.024;7.540;2023-11-19T08:17:40;29.20;;;26.87;;
15454;SDS011;21057;51.024;7.540;2023-11-19T08:20:08;29.07;;;26.07;;
15454;SDS011;21057;51.024;7.540;2023-11-19T08:22:35;28.30;;;26.40;;
15454;SDS011;21057;51.024;7.540;2023-11-19T08:25:03;28.20;;;26.37;;
15454;SDS011;21057;51.024;7.540;2023-11-19T08:27:30;28.27;;;26.30;;
15454;SDS011;21057;51.024;7.540;2023-11-19T08:29:59;29.97;;;27.67;;
15454;SDS011;21057;51.024;7.540;2023-11-19T08:32:26;28.13;;;25.90;;
15454;SDS011;21057;51.024;7.540;2023-11-19T08:34:53;28.13;;;25.77;;
15454;SDS011;21057;51.024;7.540;2023-11-19T08:37:21;28.20;;;26.20;;
15454;SDS011;21057;51.024;7.540;2023-11-19T08:39:47;28.90;;;27.07;;
15454;SDS011;21057;51.024;7.540;2023-11-19T08:42:14;29.20;;;26.70;;
15454;SDS011;21057;51.024;7.540;2023-11-19T08:44:41;28.60;;;25.97;;
15454;SDS011;21057;51.024;7.540;2023-11-19T08:47:10;27.10;;;24.60;;
15454;SDS011;21057;51.024;7.540;2023-11-19T08:49:38;27.53;;;25.40;;
15454;SDS011;21057;51.024;7.540;2023-11-19T08:52:05;27.93;;;25.47;;
15454;SDS011;21057;51.024;7.540;2023-11-19T08:54:32;27.53;;;25.33;;
15454;SDS011;21057;51.024;7.540;2023-11-19T08:56:59;27.60;;;25.27;;
15454;SDS011;21057;51.024;7.540;2023-11-19T08:59:28;28.67;;;25.77;;
15454;SDS011;21057;51.024;7.540;2023-11-19T09:01:54;27.07;;;25.00;;
15454;SDS011;21057;51.024;7.540;2023-11-19T09:04:23;26.80;;;24.50;;
15454;SDS011;21057;51.024;7.540;2023-11-19T09:06:50;28.67;;;26.03;;
15454;SDS011;21057;51.024;7.540;2023-11-19T09:09:17;29.00;;;26.47;;
15454;SDS011;21057;51.024;7.540;2023-11-19T09:11:43;27.23;;;25.03;;
15454;SDS011;21057;51.024;7.540;2023-11-19T09:14:10;27.70;;;25.33;;
15454;SDS011;21057;51.024;7.540;2023-11-19T09:16:37;27.33;;;25.30;;
15454;SDS011;21057;51.024;7.540;2023-11-19T09:19:04;26.70;;;24.13;;
15454;SDS011;21057;51.024;7.540;2023-11-19T09:21:32;26.47;;;24.23;;
15454;SDS011;21057;51.024;7.540;2023-11-19T09:24:02;26.10;;;24.10;;
15454;SDS011;21057;51.024;7.540;2023-11-19T09:26:30;27.43;;;24.13;;
15454;SDS011;21057;51.024;7.540;2023-11-19T09:28:57;27.30;;;25.20;;
15454;SDS011;21057;51.024;7.540;2023-11-19T09:31:23;25.53;;;23.47;;
15454;SDS011;21057;51.024;7.540;2023-11-19T09:33:50;25.23;;;23.37;;
15454;SDS011;21057;51.024;7.540;2023-11-19T09:36:17;38.13;;;26.60;;
15454;SDS011;21057;51.024;7.540;2023-11-19T09:38:45;25.87;;;23.87;;
15454;SDS011;21057;51.024;7.540;2023-11-19T09:41:12;26.83;;;24.70;;
15454;SDS011;21057;51.024;7.540;2023-11-19T09:43:39;25.90;;;23.67;;
15454;SDS011;21057;51.024;7.540;2023-11-19T09:46:09;26.30;;;23.93;;
15454;SDS011;21057;51.024;7.540;2023-11-19T09:48:38;26.20;;;23.83;;
15454;SDS011;21057;51.024;7.540;2023-11-19T09:51:05;25.37;;;23.67;;
15454;SDS011;21057;51.024;7.540;2023-11-19T09:53:33;27.63;;;25.10;;
15454;SDS011;21057;51.024;7.540;2023-11-19T09:56:02;27.97;;;24.30;;
15454;SDS011;21057;51.024;7.540;2023-11-19T09:58:30;26.03;;;23.93;;
15454;SDS011;21057;51.024;7.540;2023-11-19T10:00:57;26.97;;;24.77;;
15454;SDS011;21057;51.024;7.540;2023-11-19T10:03:25;33.20;;;25.47;;
15454;SDS011;21057;51.024;7.540;2023-11-19T10:05:55;25.97;;;24.23;;
15454;SDS011;21057;51.024;7.540;2023-11-19T10:08:22;26.17;;;24.20;;
15454;SDS011;21057;51.024;7.540;2023-11-19T10:10:49;25.50;;;23.37;;
15454;SDS011;21057;51.024;7.540;2023-11-19T10:13:18;25.47;;;23.67;;
15454;SDS011;21057;51.024;7.540;2023-11-19T10:15:45;24.73;;;22.50;;
15454;SDS011;21057;51.024;7.540;2023-11-19T10:18:14;24.47;;;22.53;;
15454;SDS011;21057;51.024;7.540;2023-11-19T10:20:40;25.10;;;22.53;;
15454;SDS011;21057;51.024;7.540;2023-11-19T10:23:08;25.63;;;23.10;;
15454;SDS011;21057;51.024;7.540;2023-11-19T10:25:35;23.53;;;21.93;;
15454;SDS011;21057;51.024;7.540;2023-11-19T10:28:02;24.03;;;22.13;;
15454;SDS011;21057;51.024;7.540;2023-11-19T10:30:30;24.83;;;23.10;;
15454;SDS011;21057;51.024;7.540;2023-11-19T10:33:05;26.53;;;22.63;;
15454;SDS011;21057;51.024;7.540;2023-11-19T10:35:33;24.17;;;22.30;;
15454;SDS011;21057;51.024;7.540;2023-11-19T10:38:00;23.80;;;21.57;;
15454;SDS011;21057;51.024;7.540;2023-11-19T10:43:12;22.93;;;21.40;;
15454;SDS011;21057;51.024;7.540;2023-11-19T10:45:40;24.50;;;20.90;;
15454;SDS011;21057;51.024;7.540;2023-11-19T10:48:07;23.97;;;21.47;;
15454;SDS011;21057;51.024;7.540;2023-11-19T10:50:35;23.03;;;20.77;;
15454;SDS011;21057;51.024;7.540;2023-11-19T10:53:04;27.20;;;21.30;;
15454;SDS011;21057;51.024;7.540;2023-11-19T10:55:32;23.20;;;21.40;;
15454;SDS011;21057;51.024;7.540;2023-11-19T10:58:00;23.37;;;21.00;;
15454;SDS011;21057;51.024;7.540;2023-11-19T11:00:28;22.53;;;20.57;;
15454;SDS011;21057;51.024;7.540;2023-11-19T11:03:01;22.90;;;21.03;;
15454;SDS011;21057;51.024;7.540;2023-11-19T11:05:32;23.43;;;21.73;;
15454;SDS011;21057;51.024;7.540;2023-11-19T11:08:00;22.43;;;20.40;;
15454;SDS011;21057;51.024;7.540;2023-11-19T11:10:28;22.67;;;19.80;;
15454;SDS011;21057;51.024;7.540;2023-11-19T11:13:02;24.53;;;20.43;;
15454;SDS011;21057;51.024;7.540;2023-11-19T11:15:30;21.63;;;20.13;;
15454;SDS011;21057;51.024;7.540;2023-11-19T11:17:59;20.67;;;19.37;;
15454;SDS011;21057;51.024;7.540;2023-11-19T11:20:28;22.27;;;19.93;;
15454;SDS011;21057;51.024;7.540;2023-11-19T11:23:02;23.13;;;20.33;;
15454;SDS011;21057;51.024;7.540;2023-11-19T11:25:53;20.97;;;19.40;;
15454;SDS011;21057;51.024;7.540;2023-11-19T11:28:32;21.87;;;19.73;;
15454;SDS011;21057;51.024;7.540;2023-11-19T11:31:21;23.33;;;21.03;;
15454;SDS011;21057;51.024;7.540;2023-11-19T11:34:09;22.10;;;20.40;;
15454;SDS011;21057;51.024;7.540;2023-11-19T11:36:53;21.37;;;19.73;;
15454;SDS011;21057;51.024;7.540;2023-11-19T11:39:28;22.90;;;20.37;;
15454;SDS011;21057;51.024;7.540;2023-11-19T11:45:00;21.07;;;19.80;;
15454;SDS011;21057;51.024;7.540;2023-11-19T11:50:47;22.23;;;20.33;;
15454;SDS011;21057;51.024;7.540;2023-11-19T11:53:23;23.17;;;21.50;;
15454;SDS011;21057;51.024;7.540;2023-11-19T11:55:54;23.33;;;21.17;;
15454;SDS011;21057;51.024;7.540;2023-11-19T11:58:28;23.60;;;21.80;;
15454;SDS011;21057;51.024;7.540;2023-11-19T12:01:01;23.83;;;22.33;;
15454;SDS011;21057;51.024;7.540;2023-11-19T12:03:30;23.80;;;21.80;;
15454;SDS011;21057;51.024;7.540;2023-11-19T12:05:59;24.53;;;22.70;;
15454;SDS011;21057;51.024;7.540;2023-11-19T12:08:27;25.10;;;23.23;;
15454;SDS011;21057;51.024;7.540;2023-11-19T12:10:56;24.27;;;22.57;;
15454;SDS011;21057;51.024;7.540;2023-11-19T12:13:42;25.60;;;23.23;;
15454;SDS011;21057;51.024;7.540;2023-11-19T12:16:13;24.57;;;22.57;;
15454;SDS011;21057;51.024;7.540;2023-11-19T12:18:41;24.30;;;22.80;;
15454;SDS011;21057;51.024;7.540;2023-11-19T12:21:09;25.43;;;23.67;;
15454;SDS011;21057;51.024;7.540;2023-11-19T12:23:43;25.30;;;22.87;;
15454;SDS011;21057;51.024;7.540;2023-11-19T12:26:31;26.30;;;24.10;;
15454;SDS011;21057;51.024;7.540;2023-11-19T12:28:59;25.30;;;23.20;;
15454;SDS011;21057;51.024;7.540;2023-11-19T12:31:28;24.87;;;22.97;;
15454;SDS011;21057;51.024;7.540;2023-11-19T12:33:55;27.10;;;24.57;;
15454;SDS011;21057;51.024;7.540;2023-11-19T12:36:23;28.00;;;25.40;;
15454;SDS011;21057;51.024;7.540;2023-11-19T12:38:50;25.30;;;23.47;;
15454;SDS011;21057;51.024;7.540;2023-11-19T12:41:17;24.37;;;22.63;;
15454;SDS011;21057;51.024;7.540;2023-11-19T12:43:47;24.03;;;22.27;;
15454;SDS011;21057;51.024;7.540;2023-11-19T12:46:17;24.27;;;22.40;;
15454;SDS011;21057;51.024;7.540;2023-11-19T12:48:45;24.27;;;22.67;;
15454;SDS011;21057;51.024;7.540;2023-11-19T12:51:12;23.53;;;21.70;;
15454;SDS011;21057;51.024;7.540;2023-11-19T12:53:48;24.10;;;22.07;;
15454;SDS011;21057;51.024;7.540;2023-11-19T12:56:19;23.13;;;21.63;;
15454;SDS011;21057;51.024;7.540;2023-11-19T12:58:46;21.73;;;20.23;;
15454;SDS011;21057;51.024;7.540;2023-11-19T13:01:15;25.17;;;21.27;;
15454;SDS011;21057;51.024;7.540;2023-11-19T13:03:44;22.97;;;21.47;;
15454;SDS011;21057;51.024;7.540;2023-11-19T13:06:11;22.70;;;21.00;;
15454;SDS011;21057;51.024;7.540;2023-11-19T13:08:41;23.13;;;21.60;;
15454;SDS011;21057;51.024;7.540;2023-11-19T13:11:11;22.20;;;20.80;;
15454;SDS011;21057;51.024;7.540;2023-11-19T13:13:54;23.53;;;21.53;;
15454;SDS011;21057;51.024;7.540;2023-11-19T13:16:21;22.77;;;21.27;;
15454;SDS011;21057;51.024;7.540;2023-11-19T13:18:48;23.40;;;21.10;;
15454;SDS011;21057;51.024;7.540;2023-11-19T13:21:15;22.57;;;20.97;;
15454;SDS011;21057;51.024;7.540;2023-11-19T13:23:42;22.53;;;21.13;;
15454;SDS011;21057;51.024;7.540;2023-11-19T13:26:10;24.40;;;22.10;;
15454;SDS011;21057;51.024;7.540;2023-11-19T13:28:38;22.83;;;21.03;;
15454;SDS011;21057;51.024;7.540;2023-11-19T13:31:05;22.97;;;21.27;;
15454;SDS011;21057;51.024;7.540;2023-11-19T13:33:32;23.67;;;21.57;;
15454;SDS011;21057;51.024;7.540;2023-11-19T13:35:59;24.77;;;22.37;;
15454;SDS011;21057;51.024;7.540;2023-11-19T13:38:30;24.60;;;22.57;;
15454;SDS011;21057;51.024;7.540;2023-11-19T13:40:57;25.57;;;23.53;;
15454;SDS011;21057;51.024;7.540;2023-11-19T13:43:26;26.57;;;24.37;;
15454;SDS011;21057;51.024;7.540;2023-11-19T13:45:53;28.00;;;25.17;;
15454;SDS011;21057;51.024;7.540;2023-11-19T13:48:20;25.90;;;24.20;;
15454;SDS011;21057;51.024;7.540;2023-11-19T13:50:47;27.93;;;25.83;;
15454;SDS011;21057;51.024;7.540;2023-11-19T13:53:14;26.40;;;24.00;;
15454;SDS011;21057;51.024;7.540;2023-11-19T13:55:41;27.70;;;25.53;;
15454;SDS011;21057;51.024;7.540;2023-11-19T13:58:08;28.27;;;26.20;;
15454;SDS011;21057;51.024;7.540;2023-11-19T14:00:37;26.40;;;24.47;;
15454;SDS011;21057;51.024;7.540;2023-11-19T14:03:03;27.50;;;25.10;;
15454;SDS011;21057;51.024;7.540;2023-11-19T14:05:31;28.33;;;26.23;;
15454;SDS011;21057;51.024;7.540;2023-11-19T14:07:58;26.10;;;24.30;;
15454;SDS011;21057;51.024;7.540;2023-11-19T14:10:26;26.17;;;24.47;;
15454;SDS011;21057;51.024;7.540;2023-11-19T14:12:53;26.23;;;24.10;;
15454;SDS011;21057;51.024;7.540;2023-11-19T14:15:20;26.67;;;24.87;;
15454;SDS011;21057;51.024;7.540;2023-11-19T14:17:48;26.23;;;24.37;;
15454;SDS011;21057;51.024;7.540;2023-11-19T14:20:15;26.47;;;24.57;;
15454;SDS011;21057;51.024;7.540;2023-11-19T14:22:43;26.60;;;24.37;;
15454;SDS011;21057;51.024;7.540;2023-11-19T14:25:13;26.03;;;23.97;;
15454;SDS011;21057;51.024;7.540;2023-11-19T14:27:40;26.93;;;24.87;;
15454;SDS011;21057;51.024;7.540;2023-11-19T14:30:08;26.67;;;24.57;;
15454;SDS011;21057;51.024;7.540;2023-11-19T14:32:38;27.80;;;23.80;;
15454;SDS011;21057;51.024;7.540;2023-11-19T14:35:08;24.73;;;23.07;;
15454;SDS011;21057;51.024;7.540;2023-11-19T14:37:36;26.43;;;24.50;;
15454;SDS011;21057;51.024;7.540;2023-11-19T14:40:03;25.63;;;23.27;;